sensor_id;sensor_type;location;lat;lon;timestamp;temperature;humidity
18575;DHT22;9417;16.484;102.872;2022-12-07T00:01:05;20.80;90.30
18575;DHT22;9417;16.484;102.872;2022-12-07T00:03:13;20.80;90.20
18575;DHT22;9417;16.484;102.872;2022-12-07T00:05:20;20.80;90.30
18575;DHT22;9417;16.484;102.872;2022-12-07T00:07:29;20.80;89.50
18575;DHT22;9417;16.484;102.872;2022-12-07T00:09:36;20.80;89.10
18575;DHT22;9417;16.484;102.872;2022-12-07T00:11:44;20.80;89.10
18575;DHT22;9417;16.484;102.872;2022-12-07T00:13:54;20.80;89.00
18575;DHT22;9417;16.484;102.872;2022-12-07T00:16:02;20.80;89.10
18575;DHT22;9417;16.484;102.872;2022-12-07T00:18:10;20.80;89.40
18575;DHT22;9417;16.484;102.872;2022-12-07T00:20:17;20.80;89.40
18575;DHT22;9417;16.484;102.872;2022-12-07T00:22:24;20.90;89.00
18575;DHT22;9417;16.484;102.872;2022-12-07T00:24:33;20.90;89.30
18575;DHT22;9417;16.484;102.872;2022-12-07T00:26:41;20.90;88.80
18575;DHT22;9417;16.484;102.872;2022-12-07T00:28:50;21.00;88.40
18575;DHT22;9417;16.484;102.872;2022-12-07T00:31:02;21.00;88.50
18575;DHT22;9417;16.484;102.872;2022-12-07T00:33:09;21.10;87.50
18575;DHT22;9417;16.484;102.872;2022-12-07T00:35:16;21.10;87.50
18575;DHT22;9417;16.484;102.872;2022-12-07T00:37:24;21.20;86.80
18575;DHT22;9417;16.484;102.872;2022-12-07T00:39:33;21.30;86.30
18575;DHT22;9417;16.484;102.872;2022-12-07T00:41:40;21.30;86.20
18575;DHT22;9417;16.484;102.872;2022-12-07T00:43:48;21.40;85.80
18575;DHT22;9417;16.484;102.872;2022-12-07T00:45:55;21.40;84.30
18575;DHT22;9417;16.484;102.872;2022-12-07T00:48:03;21.50;83.70
18575;DHT22;9417;16.484;102.872;2022-12-07T00:50:10;21.60;83.40
18575;DHT22;9417;16.484;102.872;2022-12-07T00:52:17;21.60;82.40
18575;DHT22;9417;16.484;102.872;2022-12-07T00:54:25;21.60;81.60
18575;DHT22;9417;16.484;102.872;2022-12-07T00:56:34;21.70;81.60
18575;DHT22;9417;16.484;102.872;2022-12-07T00:58:41;21.80;81.10
18575;DHT22;9417;16.484;102.872;2022-12-07T01:00:48;21.90;80.60
18575;DHT22;9417;16.484;102.872;2022-12-07T01:02:55;21.90;79.30
18575;DHT22;9417;16.484;102.872;2022-12-07T01:05:03;22.00;79.00
18575;DHT22;9417;16.484;102.872;2022-12-07T01:07:10;22.10;78.50
18575;DHT22;9417;16.484;102.872;2022-12-07T01:09:17;22.20;78.30
18575;DHT22;9417;16.484;102.872;2022-12-07T01:11:27;22.30;77.90
18575;DHT22;9417;16.484;102.872;2022-12-07T01:13:36;22.30;76.80
18575;DHT22;9417;16.484;102.872;2022-12-07T01:15:43;22.40;77.50
18575;DHT22;9417;16.484;102.872;2022-12-07T01:17:51;22.60;76.40
18575;DHT22;9417;16.484;102.872;2022-12-07T01:19:59;22.60;76.30
18575;DHT22;9417;16.484;102.872;2022-12-07T01:22:06;22.70;75.50
18575;DHT22;9417;16.484;102.872;2022-12-07T01:24:13;22.80;76.20
18575;DHT22;9417;16.484;102.872;2022-12-07T01:26:22;22.80;75.40
18575;DHT22;9417;16.484;102.872;2022-12-07T01:28:30;22.90;74.60
18575;DHT22;9417;16.484;102.872;2022-12-07T01:30:38;22.90;75.00
18575;DHT22;9417;16.484;102.872;2022-12-07T01:32:45;23.00;75.20
18575;DHT22;9417;16.484;102.872;2022-12-07T01:34:53;23.10;73.70
18575;DHT22;9417;16.484;102.872;2022-12-07T01:36:59;23.20;73.80
18575;DHT22;9417;16.484;102.872;2022-12-07T01:39:09;23.20;73.80
18575;DHT22;9417;16.484;102.872;2022-12-07T01:41:16;23.30;73.80
18575;DHT22;9417;16.484;102.872;2022-12-07T01:43:24;23.40;72.80
18575;DHT22;9417;16.484;102.872;2022-12-07T01:45:40;23.40;72.10
18575;DHT22;9417;16.484;102.872;2022-12-07T01:47:51;23.50;72.10
18575;DHT22;9417;16.484;102.872;2022-12-07T01:50:00;23.50;72.60
18575;DHT22;9417;16.484;102.872;2022-12-07T01:52:14;23.60;73.20
18575;DHT22;9417;16.484;102.872;2022-12-07T01:54:23;23.70;72.20
18575;DHT22;9417;16.484;102.872;2022-12-07T01:56:30;23.70;72.70
18575;DHT22;9417;16.484;102.872;2022-12-07T01:58:38;23.80;72.60
18575;DHT22;9417;16.484;102.872;2022-12-07T02:00:47;23.80;72.70
18575;DHT22;9417;16.484;102.872;2022-12-07T02:02:57;23.90;72.30
18575;DHT22;9417;16.484;102.872;2022-12-07T02:05:07;24.00;71.20
18575;DHT22;9417;16.484;102.872;2022-12-07T02:07:14;24.00;70.80
18575;DHT22;9417;16.484;102.872;2022-12-07T02:09:22;24.10;71.30
18575;DHT22;9417;16.484;102.872;2022-12-07T02:11:29;24.10;71.30
18575;DHT22;9417;16.484;102.872;2022-12-07T02:13:37;24.20;70.60
18575;DHT22;9417;16.484;102.872;2022-12-07T02:16:08;24.20;71.50
18575;DHT22;9417;16.484;102.872;2022-12-07T02:18:28;24.30;71.00
18575;DHT22;9417;16.484;102.872;2022-12-07T02:20:43;24.30;70.60
18575;DHT22;9417;16.484;102.872;2022-12-07T02:25:57;24.50;69.70
18575;DHT22;9417;16.484;102.872;2022-12-07T02:28:12;24.60;70.20
18575;DHT22;9417;16.484;102.872;2022-12-07T02:30:30;24.70;69.10
18575;DHT22;9417;16.484;102.872;2022-12-07T02:32:45;24.80;68.90
18575;DHT22;9417;16.484;102.872;2022-12-07T02:34:58;24.90;69.50
18575;DHT22;9417;16.484;102.872;2022-12-07T02:37:16;24.90;67.90
18575;DHT22;9417;16.484;102.872;2022-12-07T02:39:31;24.90;68.90
18575;DHT22;9417;16.484;102.872;2022-12-07T02:41:44;25.00;69.30
18575;DHT22;9417;16.484;102.872;2022-12-07T02:43:56;25.00;68.00
18575;DHT22;9417;16.484;102.872;2022-12-07T02:46:08;25.10;68.30
18575;DHT22;9417;16.484;102.872;2022-12-07T02:48:17;25.10;68.60
18575;DHT22;9417;16.484;102.872;2022-12-07T02:50:26;25.20;68.50
18575;DHT22;9417;16.484;102.872;2022-12-07T02:52:32;25.20;68.80
18575;DHT22;9417;16.484;102.872;2022-12-07T02:54:40;25.30;68.40
18575;DHT22;9417;16.484;102.872;2022-12-07T02:56:50;25.30;67.60
18575;DHT22;9417;16.484;102.872;2022-12-07T02:59:06;25.50;66.50
18575;DHT22;9417;16.484;102.872;2022-12-07T03:01:25;25.50;66.80
18575;DHT22;9417;16.484;102.872;2022-12-07T03:03:36;25.60;66.00
18575;DHT22;9417;16.484;102.872;2022-12-07T03:05:56;25.70;67.30
18575;DHT22;9417;16.484;102.872;2022-12-07T03:08:11;25.80;67.20
18575;DHT22;9417;16.484;102.872;2022-12-07T03:10:24;25.80;66.80
18575;DHT22;9417;16.484;102.872;2022-12-07T03:12:41;25.90;67.20
18575;DHT22;9417;16.484;102.872;2022-12-07T03:14:55;25.90;66.10
18575;DHT22;9417;16.484;102.872;2022-12-07T03:17:09;26.00;65.50
18575;DHT22;9417;16.484;102.872;2022-12-07T03:19:21;26.10;65.70
18575;DHT22;9417;16.484;102.872;2022-12-07T03:21:34;26.10;65.40
18575;DHT22;9417;16.484;102.872;2022-12-07T03:23:43;26.20;65.40
18575;DHT22;9417;16.484;102.872;2022-12-07T03:25:55;26.30;66.00
18575;DHT22;9417;16.484;102.872;2022-12-07T03:28:05;26.30;65.80
18575;DHT22;9417;16.484;102.872;2022-12-07T03:30:16;26.40;65.80
18575;DHT22;9417;16.484;102.872;2022-12-07T03:32:29;26.40;65.30
18575;DHT22;9417;16.484;102.872;2022-12-07T03:34:43;26.50;65.20
18575;DHT22;9417;16.484;102.872;2022-12-07T03:36:55;26.60;64.80
18575;DHT22;9417;16.484;102.872;2022-12-07T03:39:11;26.60;64.80
18575;DHT22;9417;16.484;102.872;2022-12-07T03:41:22;26.70;65.00
18575;DHT22;9417;16.484;102.872;2022-12-07T03:43:30;26.70;64.90
18575;DHT22;9417;16.484;102.872;2022-12-07T03:45:40;26.80;62.80
18575;DHT22;9417;16.484;102.872;2022-12-07T03:47:58;26.90;63.00
18575;DHT22;9417;16.484;102.872;2022-12-07T03:50:13;26.90;63.00
18575;DHT22;9417;16.484;102.872;2022-12-07T03:52:25;27.00;63.60
18575;DHT22;9417;16.484;102.872;2022-12-07T03:54:37;27.10;63.40
18575;DHT22;9417;16.484;102.872;2022-12-07T03:57:00;27.20;63.30
18575;DHT22;9417;16.484;102.872;2022-12-07T03:59:08;27.30;63.40
18575;DHT22;9417;16.484;102.872;2022-12-07T04:01:17;27.30;63.10
18575;DHT22;9417;16.484;102.872;2022-12-07T04:03:26;27.40;63.00
18575;DHT22;9417;16.484;102.872;2022-12-07T04:05:33;27.40;61.80
18575;DHT22;9417;16.484;102.872;2022-12-07T04:07:41;27.50;62.30
18575;DHT22;9417;16.484;102.872;2022-12-07T04:09:49;27.50;62.20
18575;DHT22;9417;16.484;102.872;2022-12-07T04:11:56;27.50;61.90
18575;DHT22;9417;16.484;102.872;2022-12-07T04:14:04;27.60;61.80
18575;DHT22;9417;16.484;102.872;2022-12-07T04:16:26;27.60;61.70
18575;DHT22;9417;16.484;102.872;2022-12-07T04:18:35;27.70;61.80
18575;DHT22;9417;16.484;102.872;2022-12-07T04:20:42;27.70;61.40
18575;DHT22;9417;16.484;102.872;2022-12-07T04:22:49;27.80;61.70
18575;DHT22;9417;16.484;102.872;2022-12-07T04:24:56;27.80;61.40
18575;DHT22;9417;16.484;102.872;2022-12-07T04:27:03;27.90;60.90
18575;DHT22;9417;16.484;102.872;2022-12-07T04:29:11;27.90;60.50
18575;DHT22;9417;16.484;102.872;2022-12-07T04:31:18;27.90;60.90
18575;DHT22;9417;16.484;102.872;2022-12-07T04:33:28;28.00;60.90
18575;DHT22;9417;16.484;102.872;2022-12-07T04:35:37;28.10;60.40
18575;DHT22;9417;16.484;102.872;2022-12-07T04:37:44;28.10;60.30
18575;DHT22;9417;16.484;102.872;2022-12-07T04:39:52;28.10;60.30
18575;DHT22;9417;16.484;102.872;2022-12-07T04:41:59;28.20;60.30
18575;DHT22;9417;16.484;102.872;2022-12-07T04:44:08;28.20;58.70
18575;DHT22;9417;16.484;102.872;2022-12-07T04:46:15;28.20;59.20
18575;DHT22;9417;16.484;102.872;2022-12-07T04:48:22;28.20;58.70
18575;DHT22;9417;16.484;102.872;2022-12-07T04:50:29;28.20;59.20
18575;DHT22;9417;16.484;102.872;2022-12-07T04:52:43;28.20;59.00
18575;DHT22;9417;16.484;102.872;2022-12-07T04:54:50;28.30;59.10
18575;DHT22;9417;16.484;102.872;2022-12-07T04:56:59;28.40;59.00
18575;DHT22;9417;16.484;102.872;2022-12-07T04:59:06;28.40;59.40
18575;DHT22;9417;16.484;102.872;2022-12-07T05:01:14;28.50;59.40
18575;DHT22;9417;16.484;102.872;2022-12-07T05:03:22;28.50;59.80
18575;DHT22;9417;16.484;102.872;2022-12-07T05:05:29;28.50;59.70
18575;DHT22;9417;16.484;102.872;2022-12-07T05:07:38;28.60;59.50
18575;DHT22;9417;16.484;102.872;2022-12-07T05:09:45;28.60;58.80
18575;DHT22;9417;16.484;102.872;2022-12-07T05:11:52;28.50;59.10
18575;DHT22;9417;16.484;102.872;2022-12-07T05:14:00;28.70;59.00
18575;DHT22;9417;16.484;102.872;2022-12-07T05:16:07;28.70;58.30
18575;DHT22;9417;16.484;102.872;2022-12-07T05:18:14;28.70;58.50
18575;DHT22;9417;16.484;102.872;2022-12-07T05:20:21;28.70;58.50
18575;DHT22;9417;16.484;102.872;2022-12-07T05:22:28;28.80;58.60
18575;DHT22;9417;16.484;102.872;2022-12-07T05:24:38;28.80;58.80
18575;DHT22;9417;16.484;102.872;2022-12-07T05:26:45;28.80;59.20
18575;DHT22;9417;16.484;102.872;2022-12-07T05:28:54;28.90;59.00
18575;DHT22;9417;16.484;102.872;2022-12-07T05:31:01;28.90;58.30
18575;DHT22;9417;16.484;102.872;2022-12-07T05:33:08;29.00;58.70
18575;DHT22;9417;16.484;102.872;2022-12-07T05:35:16;29.00;58.90
18575;DHT22;9417;16.484;102.872;2022-12-07T05:37:23;29.10;58.80
18575;DHT22;9417;16.484;102.872;2022-12-07T05:39:30;29.10;58.00
18575;DHT22;9417;16.484;102.872;2022-12-07T05:41:39;29.20;58.40
18575;DHT22;9417;16.484;102.872;2022-12-07T05:44:02;29.20;58.30
18575;DHT22;9417;16.484;102.872;2022-12-07T05:46:10;29.30;58.40
18575;DHT22;9417;16.484;102.872;2022-12-07T05:48:17;29.30;58.40
18575;DHT22;9417;16.484;102.872;2022-12-07T05:50:24;29.40;58.20
18575;DHT22;9417;16.484;102.872;2022-12-07T05:52:38;29.40;58.20
18575;DHT22;9417;16.484;102.872;2022-12-07T05:54:45;29.40;58.30
18575;DHT22;9417;16.484;102.872;2022-12-07T05:56:54;29.40;57.60
18575;DHT22;9417;16.484;102.872;2022-12-07T05:59:02;29.40;57.60
18575;DHT22;9417;16.484;102.872;2022-12-07T06:01:25;29.40;57.50
18575;DHT22;9417;16.484;102.872;2022-12-07T06:03:33;29.40;57.80
18575;DHT22;9417;16.484;102.872;2022-12-07T06:05:40;29.40;57.80
18575;DHT22;9417;16.484;102.872;2022-12-07T06:07:48;29.50;57.80
18575;DHT22;9417;16.484;102.872;2022-12-07T06:09:55;29.50;57.60
18575;DHT22;9417;16.484;102.872;2022-12-07T06:12:05;29.60;58.00
18575;DHT22;9417;16.484;102.872;2022-12-07T06:14:29;29.60;57.60
18575;DHT22;9417;16.484;102.872;2022-12-07T06:16:36;29.60;57.40
18575;DHT22;9417;16.484;102.872;2022-12-07T06:18:44;29.60;57.50
18575;DHT22;9417;16.484;102.872;2022-12-07T06:20:51;29.70;57.20
18575;DHT22;9417;16.484;102.872;2022-12-07T06:22:58;29.70;57.40
18575;DHT22;9417;16.484;102.872;2022-12-07T06:25:06;29.70;57.20
18575;DHT22;9417;16.484;102.872;2022-12-07T06:27:16;29.70;57.30
18575;DHT22;9417;16.484;102.872;2022-12-07T06:29:23;29.70;57.10
18575;DHT22;9417;16.484;102.872;2022-12-07T06:31:30;29.70;56.70
18575;DHT22;9417;16.484;102.872;2022-12-07T06:33:37;29.80;56.20
18575;DHT22;9417;16.484;102.872;2022-12-07T06:35:44;29.80;56.30
18575;DHT22;9417;16.484;102.872;2022-12-07T06:37:51;29.80;56.70
18575;DHT22;9417;16.484;102.872;2022-12-07T06:39:58;29.90;56.70
18575;DHT22;9417;16.484;102.872;2022-12-07T06:42:06;29.90;56.50
18575;DHT22;9417;16.484;102.872;2022-12-07T06:44:16;29.90;56.50
18575;DHT22;9417;16.484;102.872;2022-12-07T06:46:23;29.90;56.30
18575;DHT22;9417;16.484;102.872;2022-12-07T06:48:30;29.90;56.20
18575;DHT22;9417;16.484;102.872;2022-12-07T06:50:38;29.80;56.10
18575;DHT22;9417;16.484;102.872;2022-12-07T06:52:45;29.80;56.40
18575;DHT22;9417;16.484;102.872;2022-12-07T06:54:52;29.80;55.60
18575;DHT22;9417;16.484;102.872;2022-12-07T06:56:59;29.80;55.30
18575;DHT22;9417;16.484;102.872;2022-12-07T06:59:07;29.80;55.70
18575;DHT22;9417;16.484;102.872;2022-12-07T07:01:17;29.80;55.70
18575;DHT22;9417;16.484;102.872;2022-12-07T07:03:25;29.90;55.50
18575;DHT22;9417;16.484;102.872;2022-12-07T07:05:33;29.90;56.10
18575;DHT22;9417;16.484;102.872;2022-12-07T07:07:40;29.90;56.60
18575;DHT22;9417;16.484;102.872;2022-12-07T07:10:08;29.90;56.60
18575;DHT22;9417;16.484;102.872;2022-12-07T07:12:15;30.00;56.20
18575;DHT22;9417;16.484;102.872;2022-12-07T07:14:22;30.00;55.70
18575;DHT22;9417;16.484;102.872;2022-12-07T07:16:32;30.00;55.60
18575;DHT22;9417;16.484;102.872;2022-12-07T07:18:39;30.00;55.40
18575;DHT22;9417;16.484;102.872;2022-12-07T07:20:46;30.00;54.70
18575;DHT22;9417;16.484;102.872;2022-12-07T07:22:55;30.00;55.20
18575;DHT22;9417;16.484;102.872;2022-12-07T07:25:02;30.00;55.40
18575;DHT22;9417;16.484;102.872;2022-12-07T07:27:09;30.00;55.60
18575;DHT22;9417;16.484;102.872;2022-12-07T07:29:17;30.10;55.30
18575;DHT22;9417;16.484;102.872;2022-12-07T07:31:24;30.10;55.50
18575;DHT22;9417;16.484;102.872;2022-12-07T07:33:33;30.10;55.80
18575;DHT22;9417;16.484;102.872;2022-12-07T07:35:40;30.10;54.50
18575;DHT22;9417;16.484;102.872;2022-12-07T07:37:48;30.10;54.60
18575;DHT22;9417;16.484;102.872;2022-12-07T07:39:55;30.10;55.20
18575;DHT22;9417;16.484;102.872;2022-12-07T07:42:03;30.10;55.40
18575;DHT22;9417;16.484;102.872;2022-12-07T07:44:11;30.10;55.50
18575;DHT22;9417;16.484;102.872;2022-12-07T07:46:18;30.10;54.90
18575;DHT22;9417;16.484;102.872;2022-12-07T07:48:25;30.10;54.40
18575;DHT22;9417;16.484;102.872;2022-12-07T07:50:34;30.00;55.10
18575;DHT22;9417;16.484;102.872;2022-12-07T07:52:41;29.90;55.10
18575;DHT22;9417;16.484;102.872;2022-12-07T07:54:50;29.80;55.20
18575;DHT22;9417;16.484;102.872;2022-12-07T07:56:57;29.80;55.10
18575;DHT22;9417;16.484;102.872;2022-12-07T07:59:04;29.80;55.40
18575;DHT22;9417;16.484;102.872;2022-12-07T08:01:11;29.90;55.70
18575;DHT22;9417;16.484;102.872;2022-12-07T08:03:20;29.90;55.50
18575;DHT22;9417;16.484;102.872;2022-12-07T08:05:27;29.90;55.80
18575;DHT22;9417;16.484;102.872;2022-12-07T08:07:36;29.90;55.90
18575;DHT22;9417;16.484;102.872;2022-12-07T08:09:43;29.90;56.00
18575;DHT22;9417;16.484;102.872;2022-12-07T08:12:09;29.90;55.70
18575;DHT22;9417;16.484;102.872;2022-12-07T08:14:16;29.80;55.40
18575;DHT22;9417;16.484;102.872;2022-12-07T08:16:24;29.80;54.70
18575;DHT22;9417;16.484;102.872;2022-12-07T08:18:31;29.80;54.70
18575;DHT22;9417;16.484;102.872;2022-12-07T08:20:42;29.80;55.10
18575;DHT22;9417;16.484;102.872;2022-12-07T08:22:51;29.80;54.60
18575;DHT22;9417;16.484;102.872;2022-12-07T08:24:58;29.80;54.90
18575;DHT22;9417;16.484;102.872;2022-12-07T08:27:05;29.70;55.30
18575;DHT22;9417;16.484;102.872;2022-12-07T08:29:12;29.70;55.60
18575;DHT22;9417;16.484;102.872;2022-12-07T08:31:19;29.70;55.60
18575;DHT22;9417;16.484;102.872;2022-12-07T08:33:27;29.60;55.60
18575;DHT22;9417;16.484;102.872;2022-12-07T08:35:35;29.50;55.10
18575;DHT22;9417;16.484;102.872;2022-12-07T08:37:45;29.50;55.70
18575;DHT22;9417;16.484;102.872;2022-12-07T08:39:54;29.50;55.80
18575;DHT22;9417;16.484;102.872;2022-12-07T08:42:01;29.50;55.50
18575;DHT22;9417;16.484;102.872;2022-12-07T08:44:08;29.50;55.70
18575;DHT22;9417;16.484;102.872;2022-12-07T08:46:19;29.40;56.10
18575;DHT22;9417;16.484;102.872;2022-12-07T08:48:28;29.40;55.60
18575;DHT22;9417;16.484;102.872;2022-12-07T08:50:36;29.40;55.70
18575;DHT22;9417;16.484;102.872;2022-12-07T08:52:53;29.40;56.10
18575;DHT22;9417;16.484;102.872;2022-12-07T08:55:04;29.40;56.10
18575;DHT22;9417;16.484;102.872;2022-12-07T08:57:12;29.30;55.80
18575;DHT22;9417;16.484;102.872;2022-12-07T08:59:20;29.30;56.00
18575;DHT22;9417;16.484;102.872;2022-12-07T09:01:29;29.30;56.20
18575;DHT22;9417;16.484;102.872;2022-12-07T09:03:36;29.30;56.60
18575;DHT22;9417;16.484;102.872;2022-12-07T09:05:43;29.30;56.70
18575;DHT22;9417;16.484;102.872;2022-12-07T09:07:52;29.30;56.80
18575;DHT22;9417;16.484;102.872;2022-12-07T09:10:04;29.30;56.60
18575;DHT22;9417;16.484;102.872;2022-12-07T09:12:12;29.20;56.70
18575;DHT22;9417;16.484;102.872;2022-12-07T09:14:19;29.20;56.60
18575;DHT22;9417;16.484;102.872;2022-12-07T09:16:27;29.20;57.20
18575;DHT22;9417;16.484;102.872;2022-12-07T09:18:34;29.10;57.50
18575;DHT22;9417;16.484;102.872;2022-12-07T09:20:41;29.10;57.40
18575;DHT22;9417;16.484;102.872;2022-12-07T09:22:48;29.10;57.50
18575;DHT22;9417;16.484;102.872;2022-12-07T09:24:55;29.10;57.30
18575;DHT22;9417;16.484;102.872;2022-12-07T09:27:04;29.10;57.30
18575;DHT22;9417;16.484;102.872;2022-12-07T09:29:12;29.10;57.20
18575;DHT22;9417;16.484;102.872;2022-12-07T09:31:19;29.00;57.00
18575;DHT22;9417;16.484;102.872;2022-12-07T09:33:28;29.10;56.90
18575;DHT22;9417;16.484;102.872;2022-12-07T09:35:35;29.10;57.00
18575;DHT22;9417;16.484;102.872;2022-12-07T09:37:43;29.10;57.10
18575;DHT22;9417;16.484;102.872;2022-12-07T09:39:50;29.10;56.90
18575;DHT22;9417;16.484;102.872;2022-12-07T09:41:58;29.10;57.00
18575;DHT22;9417;16.484;102.872;2022-12-07T09:44:09;29.00;57.00
18575;DHT22;9417;16.484;102.872;2022-12-07T09:46:19;29.00;56.70
18575;DHT22;9417;16.484;102.872;2022-12-07T09:48:30;29.00;56.80
18575;DHT22;9417;16.484;102.872;2022-12-07T09:50:40;28.90;57.30
18575;DHT22;9417;16.484;102.872;2022-12-07T09:52:48;28.90;57.10
18575;DHT22;9417;16.484;102.872;2022-12-07T09:54:55;28.80;57.40
18575;DHT22;9417;16.484;102.872;2022-12-07T09:57:03;28.80;57.40
18575;DHT22;9417;16.484;102.872;2022-12-07T09:59:16;28.80;57.40
18575;DHT22;9417;16.484;102.872;2022-12-07T10:01:24;28.80;58.00
18575;DHT22;9417;16.484;102.872;2022-12-07T10:03:31;28.70;58.00
18575;DHT22;9417;16.484;102.872;2022-12-07T10:05:41;28.70;58.00
18575;DHT22;9417;16.484;102.872;2022-12-07T10:07:49;28.70;58.10
18575;DHT22;9417;16.484;102.872;2022-12-07T10:09:57;28.60;58.00
18575;DHT22;9417;16.484;102.872;2022-12-07T10:12:06;28.60;58.10
18575;DHT22;9417;16.484;102.872;2022-12-07T10:14:15;28.60;58.20
18575;DHT22;9417;16.484;102.872;2022-12-07T10:16:37;28.60;58.50
18575;DHT22;9417;16.484;102.872;2022-12-07T10:18:44;28.50;59.00
18575;DHT22;9417;16.484;102.872;2022-12-07T10:21:01;28.50;59.30
18575;DHT22;9417;16.484;102.872;2022-12-07T10:23:16;28.50;59.60
18575;DHT22;9417;16.484;102.872;2022-12-07T10:25:26;28.40;59.80
18575;DHT22;9417;16.484;102.872;2022-12-07T10:27:33;28.40;59.80
18575;DHT22;9417;16.484;102.872;2022-12-07T10:29:47;28.40;59.90
18575;DHT22;9417;16.484;102.872;2022-12-07T10:31:57;28.30;60.30
18575;DHT22;9417;16.484;102.872;2022-12-07T10:34:20;28.30;60.40
18575;DHT22;9417;16.484;102.872;2022-12-07T10:36:36;28.20;60.80
18575;DHT22;9417;16.484;102.872;2022-12-07T10:38:46;28.20;60.80
18575;DHT22;9417;16.484;102.872;2022-12-07T10:41:04;28.10;61.20
18575;DHT22;9417;16.484;102.872;2022-12-07T10:43:18;28.10;61.10
18575;DHT22;9417;16.484;102.872;2022-12-07T10:45:27;28.10;61.30
18575;DHT22;9417;16.484;102.872;2022-12-07T10:47:45;28.00;61.20
18575;DHT22;9417;16.484;102.872;2022-12-07T10:50:15;28.00;61.10
18575;DHT22;9417;16.484;102.872;2022-12-07T10:52:38;28.00;61.20
18575;DHT22;9417;16.484;102.872;2022-12-07T10:54:51;27.90;61.40
18575;DHT22;9417;16.484;102.872;2022-12-07T10:57:27;27.90;61.60
18575;DHT22;9417;16.484;102.872;2022-12-07T11:00:01;27.90;61.80
18575;DHT22;9417;16.484;102.872;2022-12-07T11:02:25;27.90;62.00
18575;DHT22;9417;16.484;102.872;2022-12-07T11:04:38;27.80;62.20
18575;DHT22;9417;16.484;102.872;2022-12-07T11:06:54;27.70;62.20
18575;DHT22;9417;16.484;102.872;2022-12-07T11:09:24;27.70;62.30
18575;DHT22;9417;16.484;102.872;2022-12-07T11:12:02;27.70;62.30
18575;DHT22;9417;16.484;102.872;2022-12-07T11:14:16;27.60;62.50
18575;DHT22;9417;16.484;102.872;2022-12-07T11:16:39;27.60;62.60
18575;DHT22;9417;16.484;102.872;2022-12-07T11:21:29;27.50;63.10
18575;DHT22;9417;16.484;102.872;2022-12-07T11:23:48;27.50;63.40
18575;DHT22;9417;16.484;102.872;2022-12-07T11:26:04;27.50;63.70
18575;DHT22;9417;16.484;102.872;2022-12-07T11:28:23;27.40;63.90
18575;DHT22;9417;16.484;102.872;2022-12-07T11:30:36;27.40;64.60
18575;DHT22;9417;16.484;102.872;2022-12-07T11:33:09;27.30;64.60
18575;DHT22;9417;16.484;102.872;2022-12-07T11:35:29;27.30;64.90
18575;DHT22;9417;16.484;102.872;2022-12-07T11:37:38;27.20;64.80
18575;DHT22;9417;16.484;102.872;2022-12-07T11:39:50;27.20;64.90
18575;DHT22;9417;16.484;102.872;2022-12-07T11:42:04;27.20;66.00
18575;DHT22;9417;16.484;102.872;2022-12-07T11:44:24;27.20;66.10
18575;DHT22;9417;16.484;102.872;2022-12-07T11:46:43;27.10;66.40
18575;DHT22;9417;16.484;102.872;2022-12-07T11:48:58;27.10;66.10
18575;DHT22;9417;16.484;102.872;2022-12-07T11:51:11;27.00;66.20
18575;DHT22;9417;16.484;102.872;2022-12-07T11:53:20;27.00;66.30
18575;DHT22;9417;16.484;102.872;2022-12-07T11:55:32;27.00;66.40
18575;DHT22;9417;16.484;102.872;2022-12-07T11:57:48;27.00;66.50
18575;DHT22;9417;16.484;102.872;2022-12-07T12:00:00;27.00;66.20
18575;DHT22;9417;16.484;102.872;2022-12-07T12:02:14;26.90;66.40
18575;DHT22;9417;16.484;102.872;2022-12-07T12:04:34;26.90;66.60
18575;DHT22;9417;16.484;102.872;2022-12-07T12:06:47;26.90;66.60
18575;DHT22;9417;16.484;102.872;2022-12-07T12:08:58;26.90;66.50
18575;DHT22;9417;16.484;102.872;2022-12-07T12:11:38;26.90;66.50
18575;DHT22;9417;16.484;102.872;2022-12-07T12:14:17;26.80;66.60
18575;DHT22;9417;16.484;102.872;2022-12-07T12:17:09;26.80;66.80
18575;DHT22;9417;16.484;102.872;2022-12-07T12:19:27;26.80;66.90
18575;DHT22;9417;16.484;102.872;2022-12-07T12:21:38;26.80;67.00
18575;DHT22;9417;16.484;102.872;2022-12-07T12:23:50;26.70;67.30
18575;DHT22;9417;16.484;102.872;2022-12-07T12:25:59;26.70;68.20
18575;DHT22;9417;16.484;102.872;2022-12-07T12:28:21;26.70;68.10
18575;DHT22;9417;16.484;102.872;2022-12-07T12:30:35;26.70;69.70
18575;DHT22;9417;16.484;102.872;2022-12-07T12:32:43;26.60;69.60
18575;DHT22;9417;16.484;102.872;2022-12-07T12:35:17;26.60;69.30
18575;DHT22;9417;16.484;102.872;2022-12-07T12:37:43;26.60;70.70
18575;DHT22;9417;16.484;102.872;2022-12-07T12:42:47;26.50;69.80
18575;DHT22;9417;16.484;102.872;2022-12-07T12:45:19;26.50;68.80
18575;DHT22;9417;16.484;102.872;2022-12-07T12:47:43;26.50;68.50
18575;DHT22;9417;16.484;102.872;2022-12-07T12:50:18;26.50;68.20
18575;DHT22;9417;16.484;102.872;2022-12-07T12:52:53;26.50;68.50
18575;DHT22;9417;16.484;102.872;2022-12-07T12:55:13;26.50;68.40
18575;DHT22;9417;16.484;102.872;2022-12-07T12:57:28;26.40;68.50
18575;DHT22;9417;16.484;102.872;2022-12-07T12:59:38;26.40;68.70
18575;DHT22;9417;16.484;102.872;2022-12-07T13:01:46;26.30;69.40
18575;DHT22;9417;16.484;102.872;2022-12-07T13:03:54;26.20;70.20
18575;DHT22;9417;16.484;102.872;2022-12-07T13:06:31;26.20;71.40
18575;DHT22;9417;16.484;102.872;2022-12-07T13:08:42;26.10;74.40
18575;DHT22;9417;16.484;102.872;2022-12-07T13:10:49;26.00;73.80
18575;DHT22;9417;16.484;102.872;2022-12-07T13:12:57;26.00;74.70
18575;DHT22;9417;16.484;102.872;2022-12-07T13:15:32;26.00;74.90
18575;DHT22;9417;16.484;102.872;2022-12-07T13:18:03;25.90;76.40
18575;DHT22;9417;16.484;102.872;2022-12-07T13:20:39;25.90;76.60
18575;DHT22;9417;16.484;102.872;2022-12-07T13:22:48;25.80;76.10
18575;DHT22;9417;16.484;102.872;2022-12-07T13:24:57;25.80;76.60
18575;DHT22;9417;16.484;102.872;2022-12-07T13:27:10;25.70;76.40
18575;DHT22;9417;16.484;102.872;2022-12-07T13:29:19;25.70;76.90
18575;DHT22;9417;16.484;102.872;2022-12-07T13:31:34;25.60;77.10
18575;DHT22;9417;16.484;102.872;2022-12-07T13:33:43;25.60;77.40
18575;DHT22;9417;16.484;102.872;2022-12-07T13:35:54;25.60;77.60
18575;DHT22;9417;16.484;102.872;2022-12-07T13:38:15;25.60;77.80
18575;DHT22;9417;16.484;102.872;2022-12-07T13:40:24;25.60;77.40
18575;DHT22;9417;16.484;102.872;2022-12-07T13:42:32;25.50;76.00
18575;DHT22;9417;16.484;102.872;2022-12-07T13:44:41;25.60;75.70